sensor_id;sensor_type;location;lat;lon;timestamp;temperature;humidity
12811;DHT22;6470;47.654;7.896;2022-10-31T00:01:30;9.60;99.90
12811;DHT22;6470;47.654;7.896;2022-10-31T00:03:56;9.70;99.90
12811;DHT22;6470;47.654;7.896;2022-10-31T00:06:22;9.60;99.90
12811;DHT22;6470;47.654;7.896;2022-10-31T00:08:56;9.40;99.90
12811;DHT22;6470;47.654;7.896;2022-10-31T00:11:22;9.30;99.90
12811;DHT22;6470;47.654;7.896;2022-10-31T00:13:48;8.50;99.90
12811;DHT22;6470;47.654;7.896;2022-10-31T00:16:18;9.30;99.90
12811;DHT22;6470;47.654;7.896;2022-10-31T00:21:10;9.40;99.90
12811;DHT22;6470;47.654;7.896;2022-10-31T00:26:03;9.30;99.90
12811;DHT22;6470;47.654;7.896;2022-10-31T00:28:30;8.10;99.90
12811;DHT22;6470;47.654;7.896;2022-10-31T00:31:05;9.30;99.90
12811;DHT22;6470;47.654;7.896;2022-10-31T00:33:33;9.00;99.90
12811;DHT22;6470;47.654;7.896;2022-10-31T00:38:25;8.70;99.90
12811;DHT22;6470;47.654;7.896;2022-10-31T00:40:51;9.10;99.90
12811;DHT22;6470;47.654;7.896;2022-10-31T00:45:43;9.50;99.90
12811;DHT22;6470;47.654;7.896;2022-10-31T00:48:09;9.10;99.90
12811;DHT22;6470;47.654;7.896;2022-10-31T00:50:36;9.30;99.90
12811;DHT22;6470;47.654;7.896;2022-10-31T00:53:02;9.40;99.90
12811;DHT22;6470;47.654;7.896;2022-10-31T00:55:27;7.10;99.90
12811;DHT22;6470;47.654;7.896;2022-10-31T00:57:53;8.70;99.90
12811;DHT22;6470;47.654;7.896;2022-10-31T01:00:19;7.20;99.90
12811;DHT22;6470;47.654;7.896;2022-10-31T01:02:44;9.50;99.90
12811;DHT22;6470;47.654;7.896;2022-10-31T01:07:40;8.50;99.90
12811;DHT22;6470;47.654;7.896;2022-10-31T01:10:06;7.10;99.90
12811;DHT22;6470;47.654;7.896;2022-10-31T01:12:40;7.80;99.90
12811;DHT22;6470;47.654;7.896;2022-10-31T01:15:06;8.80;99.90
12811;DHT22;6470;47.654;7.896;2022-10-31T01:17:33;8.40;99.90
12811;DHT22;6470;47.654;7.896;2022-10-31T01:22:24;8.70;99.90
12811;DHT22;6470;47.654;7.896;2022-10-31T01:24:50;8.60;99.90
12811;DHT22;6470;47.654;7.896;2022-10-31T01:27:16;9.40;99.90
12811;DHT22;6470;47.654;7.896;2022-10-31T01:29:41;8.80;99.90
12811;DHT22;6470;47.654;7.896;2022-10-31T01:32:07;8.70;99.90
12811;DHT22;6470;47.654;7.896;2022-10-31T01:34:33;8.60;99.90
12811;DHT22;6470;47.654;7.896;2022-10-31T01:37:00;8.80;99.90
12811;DHT22;6470;47.654;7.896;2022-10-31T01:39:25;8.10;99.90
12811;DHT22;6470;47.654;7.896;2022-10-31T01:41:53;8.70;99.90
12811;DHT22;6470;47.654;7.896;2022-10-31T01:47:07;6.90;99.90
12811;DHT22;6470;47.654;7.896;2022-10-31T01:49:42;8.90;99.90
12811;DHT22;6470;47.654;7.896;2022-10-31T01:54:44;8.20;99.90
12811;DHT22;6470;47.654;7.896;2022-10-31T01:57:11;8.60;99.90
12811;DHT22;6470;47.654;7.896;2022-10-31T01:59:42;8.90;99.90
12811;DHT22;6470;47.654;7.896;2022-10-31T02:02:10;8.10;99.90
12811;DHT22;6470;47.654;7.896;2022-10-31T02:04:36;8.30;99.90
12811;DHT22;6470;47.654;7.896;2022-10-31T02:07:06;8.70;99.90
12811;DHT22;6470;47.654;7.896;2022-10-31T02:09:34;8.50;99.90
12811;DHT22;6470;47.654;7.896;2022-10-31T02:12:02;8.50;99.90
12811;DHT22;6470;47.654;7.896;2022-10-31T02:14:30;8.10;99.90
12811;DHT22;6470;47.654;7.896;2022-10-31T02:19:37;8.10;99.90
12811;DHT22;6470;47.654;7.896;2022-10-31T02:30:49;8.40;99.90
12811;DHT22;6470;47.654;7.896;2022-10-31T02:40:51;8.80;99.90
12811;DHT22;6470;47.654;7.896;2022-10-31T02:46:44;8.40;99.90
12811;DHT22;6470;47.654;7.896;2022-10-31T02:51:48;8.60;99.90
12811;DHT22;6470;47.654;7.896;2022-10-31T02:54:23;8.70;99.90
12811;DHT22;6470;47.654;7.896;2022-10-31T02:56:51;7.90;99.90
12811;DHT22;6470;47.654;7.896;2022-10-31T02:59:17;8.30;99.90
12811;DHT22;6470;47.654;7.896;2022-10-31T03:04:44;8.60;99.90
12811;DHT22;6470;47.654;7.896;2022-10-31T03:15:32;8.30;99.90
12811;DHT22;6470;47.654;7.896;2022-10-31T03:18:09;7.30;99.90
12811;DHT22;6470;47.654;7.896;2022-10-31T03:20:50;8.20;99.90
12811;DHT22;6470;47.654;7.896;2022-10-31T03:23:19;8.30;99.90
12811;DHT22;6470;47.654;7.896;2022-10-31T03:25:46;8.30;99.90
12811;DHT22;6470;47.654;7.896;2022-10-31T03:28:16;8.50;99.90
12811;DHT22;6470;47.654;7.896;2022-10-31T03:30:44;8.50;99.90
12811;DHT22;6470;47.654;7.896;2022-10-31T03:33:16;8.60;99.90
12811;DHT22;6470;47.654;7.896;2022-10-31T03:35:46;8.30;99.90
12811;DHT22;6470;47.654;7.896;2022-10-31T03:38:13;5.80;99.90
12811;DHT22;6470;47.654;7.896;2022-10-31T03:40:42;8.40;99.90
12811;DHT22;6470;47.654;7.896;2022-10-31T03:43:16;5.70;99.90
12811;DHT22;6470;47.654;7.896;2022-10-31T03:45:46;9.00;99.90
12811;DHT22;6470;47.654;7.896;2022-10-31T03:48:14;8.40;99.90
12811;DHT22;6470;47.654;7.896;2022-10-31T03:53:43;8.00;99.90
12811;DHT22;6470;47.654;7.896;2022-10-31T03:56:32;8.40;99.90
12811;DHT22;6470;47.654;7.896;2022-10-31T03:59:01;7.70;99.90
12811;DHT22;6470;47.654;7.896;2022-10-31T04:01:31;8.40;99.90
12811;DHT22;6470;47.654;7.896;2022-10-31T04:03:58;8.80;99.90
12811;DHT22;6470;47.654;7.896;2022-10-31T04:06:25;5.60;99.90
12811;DHT22;6470;47.654;7.896;2022-10-31T04:08:55;8.30;99.90
12811;DHT22;6470;47.654;7.896;2022-10-31T04:11:25;8.70;99.90
12811;DHT22;6470;47.654;7.896;2022-10-31T04:13:53;8.60;99.90
12811;DHT22;6470;47.654;7.896;2022-10-31T04:16:21;8.20;99.90
12811;DHT22;6470;47.654;7.896;2022-10-31T04:18:48;7.60;99.90
12811;DHT22;6470;47.654;7.896;2022-10-31T04:21:14;7.70;99.90
12811;DHT22;6470;47.654;7.896;2022-10-31T04:23:39;7.90;99.90
12811;DHT22;6470;47.654;7.896;2022-10-31T04:28:31;7.20;99.90
12811;DHT22;6470;47.654;7.896;2022-10-31T04:30:59;7.10;99.90
12811;DHT22;6470;47.654;7.896;2022-10-31T04:33:24;7.60;99.90
12811;DHT22;6470;47.654;7.896;2022-10-31T04:35:50;8.20;99.90
12811;DHT22;6470;47.654;7.896;2022-10-31T04:40:44;8.00;99.90
12811;DHT22;6470;47.654;7.896;2022-10-31T04:43:10;8.00;99.90
12811;DHT22;6470;47.654;7.896;2022-10-31T04:45:37;8.10;99.90
12811;DHT22;6470;47.654;7.896;2022-10-31T04:48:03;7.80;99.90
12811;DHT22;6470;47.654;7.896;2022-10-31T04:50:28;7.60;99.90
12811;DHT22;6470;47.654;7.896;2022-10-31T04:52:54;6.60;99.90
12811;DHT22;6470;47.654;7.896;2022-10-31T04:57:48;8.10;99.90
12811;DHT22;6470;47.654;7.896;2022-10-31T05:00:16;8.50;99.90
12811;DHT22;6470;47.654;7.896;2022-10-31T05:02:47;7.30;99.90
12811;DHT22;6470;47.654;7.896;2022-10-31T05:05:15;6.60;99.90
12811;DHT22;6470;47.654;7.896;2022-10-31T05:07:42;7.80;99.90
12811;DHT22;6470;47.654;7.896;2022-10-31T05:10:10;7.60;99.90
12811;DHT22;6470;47.654;7.896;2022-10-31T05:12:36;7.80;99.90
12811;DHT22;6470;47.654;7.896;2022-10-31T05:15:02;8.20;99.90
12811;DHT22;6470;47.654;7.896;2022-10-31T05:19:54;7.80;99.90
12811;DHT22;6470;47.654;7.896;2022-10-31T05:22:19;7.90;99.90
12811;DHT22;6470;47.654;7.896;2022-10-31T05:24:45;5.20;99.90
12811;DHT22;6470;47.654;7.896;2022-10-31T05:27:11;8.00;99.90
12811;DHT22;6470;47.654;7.896;2022-10-31T05:29:36;7.90;99.90
12811;DHT22;6470;47.654;7.896;2022-10-31T05:34:28;7.70;99.90
12811;DHT22;6470;47.654;7.896;2022-10-31T05:36:54;7.60;99.90
12811;DHT22;6470;47.654;7.896;2022-10-31T05:39:19;7.80;99.90
12811;DHT22;6470;47.654;7.896;2022-10-31T05:41:46;7.30;99.90
12811;DHT22;6470;47.654;7.896;2022-10-31T05:44:12;5.00;99.90
12811;DHT22;6470;47.654;7.896;2022-10-31T05:46:37;7.30;99.90
12811;DHT22;6470;47.654;7.896;2022-10-31T05:49:03;7.40;99.90
12811;DHT22;6470;47.654;7.896;2022-10-31T05:53:55;7.10;99.90
12811;DHT22;6470;47.654;7.896;2022-10-31T05:58:46;7.70;99.90
12811;DHT22;6470;47.654;7.896;2022-10-31T06:01:12;7.20;99.90
12811;DHT22;6470;47.654;7.896;2022-10-31T06:03:38;7.50;99.90
12811;DHT22;6470;47.654;7.896;2022-10-31T06:06:03;7.90;99.90
12811;DHT22;6470;47.654;7.896;2022-10-31T06:08:29;7.40;99.90
12811;DHT22;6470;47.654;7.896;2022-10-31T06:10:55;8.50;99.90
12811;DHT22;6470;47.654;7.896;2022-10-31T06:13:21;7.20;99.90
12811;DHT22;6470;47.654;7.896;2022-10-31T06:20:38;7.20;99.90
12811;DHT22;6470;47.654;7.896;2022-10-31T06:23:04;4.90;99.90
12811;DHT22;6470;47.654;7.896;2022-10-31T06:25:30;4.90;99.90
12811;DHT22;6470;47.654;7.896;2022-10-31T06:27:56;7.40;99.90
12811;DHT22;6470;47.654;7.896;2022-10-31T06:30:22;8.00;99.90
12811;DHT22;6470;47.654;7.896;2022-10-31T06:32:47;8.00;99.90
12811;DHT22;6470;47.654;7.896;2022-10-31T06:37:40;8.20;99.90
12811;DHT22;6470;47.654;7.896;2022-10-31T06:40:07;8.30;99.90
12811;DHT22;6470;47.654;7.896;2022-10-31T06:42:32;5.30;99.90
12811;DHT22;6470;47.654;7.896;2022-10-31T06:44:58;7.80;99.90
12811;DHT22;6470;47.654;7.896;2022-10-31T06:47:24;8.20;99.90
12811;DHT22;6470;47.654;7.896;2022-10-31T06:49:49;7.50;99.90
12811;DHT22;6470;47.654;7.896;2022-10-31T06:52:15;7.90;99.90
12811;DHT22;6470;47.654;7.896;2022-10-31T06:54:41;7.70;99.90
12811;DHT22;6470;47.654;7.896;2022-10-31T06:57:06;8.60;99.90
12811;DHT22;6470;47.654;7.896;2022-10-31T06:59:32;8.50;99.90
12811;DHT22;6470;47.654;7.896;2022-10-31T07:01:58;8.20;99.90
12811;DHT22;6470;47.654;7.896;2022-10-31T07:04:24;8.90;99.90
12811;DHT22;6470;47.654;7.896;2022-10-31T07:06:52;8.90;99.90
12811;DHT22;6470;47.654;7.896;2022-10-31T07:11:44;7.40;99.90
12811;DHT22;6470;47.654;7.896;2022-10-31T07:14:10;8.50;99.90
12811;DHT22;6470;47.654;7.896;2022-10-31T07:16:35;8.70;99.90
12811;DHT22;6470;47.654;7.896;2022-10-31T07:19:01;8.90;99.90
12811;DHT22;6470;47.654;7.896;2022-10-31T07:21:26;8.30;99.90
12811;DHT22;6470;47.654;7.896;2022-10-31T07:23:52;8.60;99.90
12811;DHT22;6470;47.654;7.896;2022-10-31T07:26:18;9.50;99.90
12811;DHT22;6470;47.654;7.896;2022-10-31T07:28:45;9.40;99.90
12811;DHT22;6470;47.654;7.896;2022-10-31T07:31:11;9.40;99.90
12811;DHT22;6470;47.654;7.896;2022-10-31T07:33:36;9.50;99.90
12811;DHT22;6470;47.654;7.896;2022-10-31T07:36:02;9.90;99.90
12811;DHT22;6470;47.654;7.896;2022-10-31T07:38:28;9.30;99.90
12811;DHT22;6470;47.654;7.896;2022-10-31T07:40:54;9.30;99.90
12811;DHT22;6470;47.654;7.896;2022-10-31T07:45:50;9.30;99.90
12811;DHT22;6470;47.654;7.896;2022-10-31T07:48:16;10.10;99.90
12811;DHT22;6470;47.654;7.896;2022-10-31T07:50:42;9.50;99.90
12811;DHT22;6470;47.654;7.896;2022-10-31T07:53:10;10.20;99.90
12811;DHT22;6470;47.654;7.896;2022-10-31T07:55:36;10.90;99.90
12811;DHT22;6470;47.654;7.896;2022-10-31T07:58:07;10.30;99.90
12811;DHT22;6470;47.654;7.896;2022-10-31T08:00:35;11.40;99.90
12811;DHT22;6470;47.654;7.896;2022-10-31T08:05:28;12.00;99.90
12811;DHT22;6470;47.654;7.896;2022-10-31T08:15:13;11.90;99.90
12811;DHT22;6470;47.654;7.896;2022-10-31T08:17:39;12.30;99.90
12811;DHT22;6470;47.654;7.896;2022-10-31T08:20:05;12.10;99.90
12811;DHT22;6470;47.654;7.896;2022-10-31T08:24:57;11.60;99.90
12811;DHT22;6470;47.654;7.896;2022-10-31T08:29:49;9.90;99.90
12811;DHT22;6470;47.654;7.896;2022-10-31T08:32:15;11.80;99.90
12811;DHT22;6470;47.654;7.896;2022-10-31T08:34:40;15.30;99.90
12811;DHT22;6470;47.654;7.896;2022-10-31T08:39:32;14.20;99.90
12811;DHT22;6470;47.654;7.896;2022-10-31T08:41:57;15.00;99.90
12811;DHT22;6470;47.654;7.896;2022-10-31T08:44:23;11.70;99.90
12811;DHT22;6470;47.654;7.896;2022-10-31T08:49:15;12.00;99.90
12811;DHT22;6470;47.654;7.896;2022-10-31T08:51:40;12.20;99.90
12811;DHT22;6470;47.654;7.896;2022-10-31T08:54:06;12.10;99.90
12811;DHT22;6470;47.654;7.896;2022-10-31T08:56:32;15.10;99.90
12811;DHT22;6470;47.654;7.896;2022-10-31T08:58:57;14.50;99.90
12811;DHT22;6470;47.654;7.896;2022-10-31T09:01:23;15.10;99.90
12811;DHT22;6470;47.654;7.896;2022-10-31T09:03:49;10.30;99.90
12811;DHT22;6470;47.654;7.896;2022-10-31T09:06:14;15.60;99.90
12811;DHT22;6470;47.654;7.896;2022-10-31T09:11:06;15.60;99.90
12811;DHT22;6470;47.654;7.896;2022-10-31T09:13:32;14.60;99.90
12811;DHT22;6470;47.654;7.896;2022-10-31T09:15:58;15.10;99.90
12811;DHT22;6470;47.654;7.896;2022-10-31T09:18:24;15.40;99.90
12811;DHT22;6470;47.654;7.896;2022-10-31T09:20:50;15.00;99.90
12811;DHT22;6470;47.654;7.896;2022-10-31T09:23:21;15.70;99.90
12811;DHT22;6470;47.654;7.896;2022-10-31T09:25:48;15.00;99.90
12811;DHT22;6470;47.654;7.896;2022-10-31T09:28:16;15.40;99.90
12811;DHT22;6470;47.654;7.896;2022-10-31T09:30:45;15.80;99.90
12811;DHT22;6470;47.654;7.896;2022-10-31T09:33:12;15.50;99.90
12811;DHT22;6470;47.654;7.896;2022-10-31T09:35:39;14.90;99.90
12811;DHT22;6470;47.654;7.896;2022-10-31T09:38:07;13.50;99.90
12811;DHT22;6470;47.654;7.896;2022-10-31T09:40:45;13.50;99.90
12811;DHT22;6470;47.654;7.896;2022-10-31T09:46:08;11.30;99.90
12811;DHT22;6470;47.654;7.896;2022-10-31T09:49:00;15.30;99.90
12811;DHT22;6470;47.654;7.896;2022-10-31T09:51:34;15.60;99.90
12811;DHT22;6470;47.654;7.896;2022-10-31T09:54:11;15.30;99.90
12811;DHT22;6470;47.654;7.896;2022-10-31T09:56:39;15.80;99.90
12811;DHT22;6470;47.654;7.896;2022-10-31T09:59:10;15.30;99.90
12811;DHT22;6470;47.654;7.896;2022-10-31T10:02:12;15.20;99.90
12811;DHT22;6470;47.654;7.896;2022-10-31T10:05:04;15.90;99.90
12811;DHT22;6470;47.654;7.896;2022-10-31T10:10:49;15.90;99.90
12811;DHT22;6470;47.654;7.896;2022-10-31T10:24:28;15.80;99.90
12811;DHT22;6470;47.654;7.896;2022-10-31T10:32:18;15.80;99.90
12811;DHT22;6470;47.654;7.896;2022-10-31T10:37:39;15.50;99.90
12811;DHT22;6470;47.654;7.896;2022-10-31T10:42:37;16.00;99.90
12811;DHT22;6470;47.654;7.896;2022-10-31T10:45:21;16.30;99.90
12811;DHT22;6470;47.654;7.896;2022-10-31T10:48:44;16.00;99.90
12811;DHT22;6470;47.654;7.896;2022-10-31T10:51:03;15.90;99.90
12811;DHT22;6470;47.654;7.896;2022-10-31T10:53:46;15.90;99.90
12811;DHT22;6470;47.654;7.896;2022-10-31T10:56:50;16.50;99.90
12811;DHT22;6470;47.654;7.896;2022-10-31T10:59:20;15.70;99.90
12811;DHT22;6470;47.654;7.896;2022-10-31T11:01:48;17.50;99.90
12811;DHT22;6470;47.654;7.896;2022-10-31T11:04:35;16.70;99.90
12811;DHT22;6470;47.654;7.896;2022-10-31T11:07:06;17.50;99.90
12811;DHT22;6470;47.654;7.896;2022-10-31T11:09:33;13.70;99.90
12811;DHT22;6470;47.654;7.896;2022-10-31T11:12:05;17.30;99.90
12811;DHT22;6470;47.654;7.896;2022-10-31T11:14:41;16.50;99.90
12811;DHT22;6470;47.654;7.896;2022-10-31T11:17:28;16.90;99.90
12811;DHT22;6470;47.654;7.896;2022-10-31T11:20:23;17.30;99.90
12811;DHT22;6470;47.654;7.896;2022-10-31T11:22:49;18.50;99.90
12811;DHT22;6470;47.654;7.896;2022-10-31T11:25:26;17.70;99.90
12811;DHT22;6470;47.654;7.896;2022-10-31T11:28:00;18.30;99.90
12811;DHT22;6470;47.654;7.896;2022-10-31T11:30:26;18.00;99.90
12811;DHT22;6470;47.654;7.896;2022-10-31T11:32:52;18.60;99.90
12811;DHT22;6470;47.654;7.896;2022-10-31T11:35:20;18.60;99.90
12811;DHT22;6470;47.654;7.896;2022-10-31T11:37:47;18.90;99.90
12811;DHT22;6470;47.654;7.896;2022-10-31T11:40:22;18.40;99.90
12811;DHT22;6470;47.654;7.896;2022-10-31T11:42:49;19.20;99.90
12811;DHT22;6470;47.654;7.896;2022-10-31T11:45:31;19.10;99.90
12811;DHT22;6470;47.654;7.896;2022-10-31T11:47:57;18.20;99.90
12811;DHT22;6470;47.654;7.896;2022-10-31T11:50:39;19.30;99.90
12811;DHT22;6470;47.654;7.896;2022-10-31T11:53:27;19.30;99.90
12811;DHT22;6470;47.654;7.896;2022-10-31T11:56:19;19.50;99.90
12811;DHT22;6470;47.654;7.896;2022-10-31T11:58:59;19.90;99.90
12811;DHT22;6470;47.654;7.896;2022-10-31T12:01:28;19.60;99.90
12811;DHT22;6470;47.654;7.896;2022-10-31T12:04:02;20.00;99.90
12811;DHT22;6470;47.654;7.896;2022-10-31T12:06:41;19.80;99.90
12811;DHT22;6470;47.654;7.896;2022-10-31T12:09:19;19.80;99.90
12811;DHT22;6470;47.654;7.896;2022-10-31T12:26:07;20.00;99.90
12811;DHT22;6470;47.654;7.896;2022-10-31T12:28:22;19.50;99.90
12811;DHT22;6470;47.654;7.896;2022-10-31T12:30:55;21.00;99.90
12811;DHT22;6470;47.654;7.896;2022-10-31T12:36:33;20.50;99.90
12811;DHT22;6470;47.654;7.896;2022-10-31T12:39:24;20.40;99.90
12811;DHT22;6470;47.654;7.896;2022-10-31T12:41:57;20.80;99.90
12811;DHT22;6470;47.654;7.896;2022-10-31T12:45:07;20.50;99.90
12811;DHT22;6470;47.654;7.896;2022-10-31T12:50:49;20.50;99.90
12811;DHT22;6470;47.654;7.896;2022-10-31T12:53:51;21.00;99.90
12811;DHT22;6470;47.654;7.896;2022-10-31T12:59:30;20.80;99.90
12811;DHT22;6470;47.654;7.896;2022-10-31T13:07:55;19.90;99.90
12811;DHT22;6470;47.654;7.896;2022-10-31T13:15:50;19.90;99.90
12811;DHT22;6470;47.654;7.896;2022-10-31T13:18:31;20.40;99.90
12811;DHT22;6470;47.654;7.896;2022-10-31T13:21:03;20.40;99.90
12811;DHT22;6470;47.654;7.896;2022-10-31T13:23:32;20.40;99.90
12811;DHT22;6470;47.654;7.896;2022-10-31T13:26:03;21.00;99.90
12811;DHT22;6470;47.654;7.896;2022-10-31T13:28:46;20.50;99.90
12811;DHT22;6470;47.654;7.896;2022-10-31T13:33:41;20.40;99.90
12811;DHT22;6470;47.654;7.896;2022-10-31T13:36:42;17.70;99.90
12811;DHT22;6470;47.654;7.896;2022-10-31T13:44:27;20.10;99.90
12811;DHT22;6470;47.654;7.896;2022-10-31T13:46:56;19.50;99.90
12811;DHT22;6470;47.654;7.896;2022-10-31T13:52:13;19.70;99.90
12811;DHT22;6470;47.654;7.896;2022-10-31T13:54:47;16.80;99.90
12811;DHT22;6470;47.654;7.896;2022-10-31T13:59:57;19.50;99.90
12811;DHT22;6470;47.654;7.896;2022-10-31T14:02:35;16.40;99.90
12811;DHT22;6470;47.654;7.896;2022-10-31T14:05:16;19.90;99.90
12811;DHT22;6470;47.654;7.896;2022-10-31T14:07:45;19.50;99.90
12811;DHT22;6470;47.654;7.896;2022-10-31T14:10:28;19.40;99.90
12811;DHT22;6470;47.654;7.896;2022-10-31T14:15:41;18.50;99.90
12811;DHT22;6470;47.654;7.896;2022-10-31T14:18:25;19.70;99.90
12811;DHT22;6470;47.654;7.896;2022-10-31T14:23:38;19.00;99.90
12811;DHT22;6470;47.654;7.896;2022-10-31T14:28:48;19.40;99.90
12811;DHT22;6470;47.654;7.896;2022-10-31T14:36:44;19.80;99.90
12811;DHT22;6470;47.654;7.896;2022-10-31T14:45:20;20.20;99.90
12811;DHT22;6470;47.654;7.896;2022-10-31T14:50:53;19.40;99.90
12811;DHT22;6470;47.654;7.896;2022-10-31T14:53:41;19.20;99.90
12811;DHT22;6470;47.654;7.896;2022-10-31T14:56:11;19.30;99.90
12811;DHT22;6470;47.654;7.896;2022-10-31T14:58:43;19.20;99.90
12811;DHT22;6470;47.654;7.896;2022-10-31T15:01:30;19.10;99.90
12811;DHT22;6470;47.654;7.896;2022-10-31T15:04:20;18.90;99.90
12811;DHT22;6470;47.654;7.896;2022-10-31T15:07:09;19.40;99.90
12811;DHT22;6470;47.654;7.896;2022-10-31T15:09:36;19.30;99.90
12811;DHT22;6470;47.654;7.896;2022-10-31T15:12:27;18.70;99.90
12811;DHT22;6470;47.654;7.896;2022-10-31T15:14:54;18.50;99.90
12811;DHT22;6470;47.654;7.896;2022-10-31T15:17:21;18.70;99.90
12811;DHT22;6470;47.654;7.896;2022-10-31T15:19:47;19.00;99.90
12811;DHT22;6470;47.654;7.896;2022-10-31T15:22:18;18.70;99.90
12811;DHT22;6470;47.654;7.896;2022-10-31T15:24:45;18.90;99.90
12811;DHT22;6470;47.654;7.896;2022-10-31T15:27:16;18.00;99.90
12811;DHT22;6470;47.654;7.896;2022-10-31T15:29:56;15.10;99.90
12811;DHT22;6470;47.654;7.896;2022-10-31T15:32:27;17.70;99.90
12811;DHT22;6470;47.654;7.896;2022-10-31T15:34:54;17.10;99.90
12811;DHT22;6470;47.654;7.896;2022-10-31T15:37:23;18.10;99.90
12811;DHT22;6470;47.654;7.896;2022-10-31T15:39:50;17.80;99.90
12811;DHT22;6470;47.654;7.896;2022-10-31T15:44:42;17.60;99.90
12811;DHT22;6470;47.654;7.896;2022-10-31T15:47:35;14.40;99.90
12811;DHT22;6470;47.654;7.896;2022-10-31T15:50:04;16.50;99.90
12811;DHT22;6470;47.654;7.896;2022-10-31T15:52:41;16.60;99.90
12811;DHT22;6470;47.654;7.896;2022-10-31T15:55:26;17.10;99.90
12811;DHT22;6470;47.654;7.896;2022-10-31T15:58:00;16.40;99.90
12811;DHT22;6470;47.654;7.896;2022-10-31T16:00:34;16.20;99.90
12811;DHT22;6470;47.654;7.896;2022-10-31T16:05:54;16.20;99.90
12811;DHT22;6470;47.654;7.896;2022-10-31T16:08:47;15.50;99.90
12811;DHT22;6470;47.654;7.896;2022-10-31T16:16:22;13.30;99.90
12811;DHT22;6470;47.654;7.896;2022-10-31T16:18:51;16.20;99.90
12811;DHT22;6470;47.654;7.896;2022-10-31T16:21:26;15.70;99.90
12811;DHT22;6470;47.654;7.896;2022-10-31T16:23:59;16.20;99.90
12811;DHT22;6470;47.654;7.896;2022-10-31T16:26:26;16.00;99.90
12811;DHT22;6470;47.654;7.896;2022-10-31T16:28:57;15.50;99.90
12811;DHT22;6470;47.654;7.896;2022-10-31T16:31:41;15.80;99.90
12811;DHT22;6470;47.654;7.896;2022-10-31T16:34:14;15.40;99.90
12811;DHT22;6470;47.654;7.896;2022-10-31T16:36:41;15.30;99.90
12811;DHT22;6470;47.654;7.896;2022-10-31T16:39:07;15.50;99.90
12811;DHT22;6470;47.654;7.896;2022-10-31T16:41:44;15.70;99.90
12811;DHT22;6470;47.654;7.896;2022-10-31T16:44:19;15.70;99.90
12811;DHT22;6470;47.654;7.896;2022-10-31T16:46:46;16.00;99.90
12811;DHT22;6470;47.654;7.896;2022-10-31T16:49:13;15.90;99.90
12811;DHT22;6470;47.654;7.896;2022-10-31T16:51:41;16.10;99.90
12811;DHT22;6470;47.654;7.896;2022-10-31T16:54:07;15.20;99.90
12811;DHT22;6470;47.654;7.896;2022-10-31T16:56:36;12.10;99.90
12811;DHT22;6470;47.654;7.896;2022-10-31T16:59:04;14.80;99.90
12811;DHT22;6470;47.654;7.896;2022-10-31T17:01:31;15.40;99.90
12811;DHT22;6470;47.654;7.896;2022-10-31T17:03:57;15.00;99.90
12811;DHT22;6470;47.654;7.896;2022-10-31T17:06:22;15.60;99.90
12811;DHT22;6470;47.654;7.896;2022-10-31T17:08:48;15.10;99.90
12811;DHT22;6470;47.654;7.896;2022-10-31T17:11:17;15.30;99.90
12811;DHT22;6470;47.654;7.896;2022-10-31T17:13:44;15.00;99.90
12811;DHT22;6470;47.654;7.896;2022-10-31T17:16:12;14.30;99.90
12811;DHT22;6470;47.654;7.896;2022-10-31T17:18:38;15.50;99.90
12811;DHT22;6470;47.654;7.896;2022-10-31T17:21:04;15.60;99.90
12811;DHT22;6470;47.654;7.896;2022-10-31T17:23:32;15.80;99.90
12811;DHT22;6470;47.654;7.896;2022-10-31T17:25:59;14.00;99.90
12811;DHT22;6470;47.654;7.896;2022-10-31T17:28:25;15.60;99.90
12811;DHT22;6470;47.654;7.896;2022-10-31T17:30:53;15.00;99.90
12811;DHT22;6470;47.654;7.896;2022-10-31T17:33:19;15.00;99.90
12811;DHT22;6470;47.654;7.896;2022-10-31T17:35:46;14.00;99.90
12811;DHT22;6470;47.654;7.896;2022-10-31T17:38:12;15.80;99.90
12811;DHT22;6470;47.654;7.896;2022-10-31T17:40:39;14.70;99.90
12811;DHT22;6470;47.654;7.896;2022-10-31T17:43:06;15.60;99.90
12811;DHT22;6470;47.654;7.896;2022-10-31T17:45:31;14.70;99.90
12811;DHT22;6470;47.654;7.896;2022-10-31T17:50:24;15.10;99.90
12811;DHT22;6470;47.654;7.896;2022-10-31T17:52:51;15.60;99.90
12811;DHT22;6470;47.654;7.896;2022-10-31T17:55:18;13.40;99.90
12811;DHT22;6470;47.654;7.896;2022-10-31T17:57:44;15.50;99.90
12811;DHT22;6470;47.654;7.896;2022-10-31T18:00:15;14.80;99.90
12811;DHT22;6470;47.654;7.896;2022-10-31T18:02:41;15.40;99.90
12811;DHT22;6470;47.654;7.896;2022-10-31T18:05:07;10.20;99.90
12811;DHT22;6470;47.654;7.896;2022-10-31T18:07:33;15.60;99.90
12811;DHT22;6470;47.654;7.896;2022-10-31T18:09:59;10.00;99.90
12811;DHT22;6470;47.654;7.896;2022-10-31T18:12:25;15.20;99.90
12811;DHT22;6470;47.654;7.896;2022-10-31T18:14:52;15.30;99.90
12811;DHT22;6470;47.654;7.896;2022-10-31T18:17:18;15.10;99.90
12811;DHT22;6470;47.654;7.896;2022-10-31T18:19:44;14.60;99.90
12811;DHT22;6470;47.654;7.896;2022-10-31T18:22:10;15.20;99.90
12811;DHT22;6470;47.654;7.896;2022-10-31T18:24:36;15.20;99.90
12811;DHT22;6470;47.654;7.896;2022-10-31T18:27:02;15.10;99.90
12811;DHT22;6470;47.654;7.896;2022-10-31T18:31:54;15.00;99.90
12811;DHT22;6470;47.654;7.896;2022-10-31T18:34:20;15.30;99.90
12811;DHT22;6470;47.654;7.896;2022-10-31T18:36:46;14.90;99.90
12811;DHT22;6470;47.654;7.896;2022-10-31T18:39:12;15.30;99.90
12811;DHT22;6470;47.654;7.896;2022-10-31T18:41:39;12.00;99.90
12811;DHT22;6470;47.654;7.896;2022-10-31T18:44:05;10.00;99.90
12811;DHT22;6470;47.654;7.896;2022-10-31T18:46:32;14.60;99.90
12811;DHT22;6470;47.654;7.896;2022-10-31T18:48:59;15.10;99.90
12811;DHT22;6470;47.654;7.896;2022-10-31T18:51:25;14.50;99.90
12811;DHT22;6470;47.654;7.896;2022-10-31T18:53:59;15.10;99.90
12811;DHT22;6470;47.654;7.896;2022-10-31T18:56:26;14.30;99.90
12811;DHT22;6470;47.654;7.896;2022-10-31T18:58:52;15.40;99.90
12811;DHT22;6470;47.654;7.896;2022-10-31T19:01:19;15.30;99.90
12811;DHT22;6470;47.654;7.896;2022-10-31T19:06:11;15.70;99.90
12811;DHT22;6470;47.654;7.896;2022-10-31T19:08:38;15.30;99.90
12811;DHT22;6470;47.654;7.896;2022-10-31T19:11:09;14.80;99.90
12811;DHT22;6470;47.654;7.896;2022-10-31T19:13:37;12.00;99.90
12811;DHT22;6470;47.654;7.896;2022-10-31T19:16:14;12.60;99.90
12811;DHT22;6470;47.654;7.896;2022-10-31T19:18:41;12.70;99.90
12811;DHT22;6470;47.654;7.896;2022-10-31T19:21:08;15.60;99.90
12811;DHT22;6470;47.654;7.896;2022-10-31T19:26:01;11.80;99.90
12811;DHT22;6470;47.654;7.896;2022-10-31T19:28:31;11.90;99.90
12811;DHT22;6470;47.654;7.896;2022-10-31T19:33:23;12.20;99.90
12811;DHT22;6470;47.654;7.896;2022-10-31T19:35:58;12.60;99.90
12811;DHT22;6470;47.654;7.896;2022-10-31T19:38:25;12.20;99.90
12811;DHT22;6470;47.654;7.896;2022-10-31T19:40:59;11.40;99.90
12811;DHT22;6470;47.654;7.896;2022-10-31T19:43:26;11.70;99.90
12811;DHT22;6470;47.654;7.896;2022-10-31T19:45:56;11.90;99.90
12811;DHT22;6470;47.654;7.896;2022-10-31T19:48:23;11.90;99.90
12811;DHT22;6470;47.654;7.896;2022-10-31T19:53:15;12.00;99.90
12811;DHT22;6470;47.654;7.896;2022-10-31T19:55:41;12.10;99.90
12811;DHT22;6470;47.654;7.896;2022-10-31T19:58:07;12.10;99.90
12811;DHT22;6470;47.654;7.896;2022-10-31T20:00:33;12.30;99.90
12811;DHT22;6470;47.654;7.896;2022-10-31T20:02:59;12.00;99.90